Time;durP1;ratioP1;P1;durP2;ratioP2;P2;SDS_P1;SDS_P2;PMS_P1;PMS_P2;Temp;Humidity;BMP_temperature;BMP_pressure;BME280_temperature;BME280_humidity;BME280_pressure;Samples;Min_cycle;Max_cycle;Signal;HPM_P1;HPM_P2
2023/03/01 00:00:07;;;;;;;16.15;4.40;;;;;;;;;;5035861;28;20139;-75
2023/03/01 00:02:33;;;;;;;14.27;4.82;;;;;;;;;;5057759;28;20776;-76
2023/03/01 00:04:59;;;;;;;13.98;4.88;;;;;;;;;;5041362;28;20519;-75
2023/03/01 00:07:25;;;;;;;15.00;4.97;;;;;;;;;;5034001;28;20656;-76
2023/03/01 00:09:51;;;;;;;15.18;5.38;;;;;;;;;;5037378;28;20401;-75
2023/03/01 00:12:17;;;;;;;16.60;5.10;;;;;;;;;;5050911;28;20102;-75
2023/03/01 00:14:43;;;;;;;13.60;4.93;;;;;;;;;;5053621;28;20584;-75
2023/03/01 00:17:10;;;;;;;15.80;5.35;;;;;;;;;;5053077;28;20106;-75
2023/03/01 00:19:36;;;;;;;14.98;4.70;;;;;;;;;;5057164;28;20696;-75
2023/03/01 00:22:03;;;;;;;17.10;4.43;;;;;;;;;;5035859;28;20428;-75
2023/03/01 00:24:29;;;;;;;20.80;4.80;;;;;;;;;;5041558;28;20294;-75
2023/03/01 00:26:56;;;;;;;19.95;5.15;;;;;;;;;;5041402;28;20046;-74
2023/03/01 00:29:23;;;;;;;18.08;4.60;;;;;;;;;;5055057;28;20036;-74
2023/03/01 00:31:49;;;;;;;14.68;4.88;;;;;;;;;;5063318;28;20190;-75
2023/03/01 00:34:15;;;;;;;22.95;5.53;;;;;;;;;;5041227;28;20053;-75
2023/03/01 00:36:42;;;;;;;18.92;4.75;;;;;;;;;;5060679;28;20039;-74
2023/03/01 00:39:11;;;;;;;19.45;4.93;;;;;;;;;;5055108;28;20028;-74
2023/03/01 00:44:43;;;;;;;13.80;4.30;;;;;;;;;;5333115;23;20050;-76
2023/03/01 00:47:09;;;;;;;16.15;4.50;;;;;;;;;;4931212;28;20288;-76
2023/03/01 00:49:35;;;;;;;15.38;4.88;;;;;;;;;;4938223;28;20027;-76
2023/03/01 00:52:01;;;;;;;14.85;4.43;;;;;;;;;;4933627;28;20348;-76
2023/03/01 00:54:28;;;;;;;15.63;4.90;;;;;;;;;;4941096;28;20113;-77
2023/03/01 00:56:54;;;;;;;19.13;4.57;;;;;;;;;;4936438;28;20114;-76
2023/03/01 00:59:20;;;;;;;16.33;4.78;;;;;;;;;;4932429;28;20504;-77
2023/03/01 01:01:46;;;;;;;18.88;4.47;;;;;;;;;;4934356;28;20027;-76
2023/03/01 01:04:13;;;;;;;20.58;4.93;;;;;;;;;;4934740;28;20034;-76
2023/03/01 01:06:44;;;;;;;14.35;4.75;;;;;;;;;;4944926;28;20030;-76
2023/03/01 01:09:16;;;;;;;15.93;5.18;;;;;;;;;;4936588;28;20034;-76
2023/03/01 01:11:43;;;;;;;15.95;5.07;;;;;;;;;;4940550;28;20055;-76
2023/03/01 01:14:09;;;;;;;18.10;5.15;;;;;;;;;;4941197;28;20512;-76
2023/03/01 01:16:35;;;;;;;14.43;4.30;;;;;;;;;;4944752;28;20038;-77
2023/03/01 01:19:02;;;;;;;18.42;5.10;;;;;;;;;;4938047;28;20636;-77
2023/03/01 01:21:28;;;;;;;17.38;5.00;;;;;;;;;;4940762;28;20310;-76
2023/03/01 01:23:54;;;;;;;16.63;4.50;;;;;;;;;;4943085;28;20026;-76
2023/03/01 01:26:25;;;;;;;16.00;4.30;;;;;;;;;;4939746;28;20493;-75
2023/03/01 01:28:52;;;;;;;19.65;5.72;;;;;;;;;;4937393;28;20366;-75
2023/03/01 01:31:18;;;;;;;15.95;5.35;;;;;;;;;;4933915;28;20568;-75
2023/03/01 01:33:45;;;;;;;16.38;4.97;;;;;;;;;;4936813;28;20035;-75
2023/03/01 01:36:11;;;;;;;14.65;5.32;;;;;;;;;;4937864;28;20094;-75
2023/03/01 01:38:38;;;;;;;19.80;5.18;;;;;;;;;;4938967;28;20552;-75
2023/03/01 01:41:04;;;;;;;20.83;5.22;;;;;;;;;;4938772;28;20051;-75
2023/03/01 01:43:33;;;;;;;18.75;4.80;;;;;;;;;;4939501;28;20704;-76
2023/03/01 01:46:00;;;;;;;15.52;4.90;;;;;;;;;;4934633;28;20041;-76
2023/03/01 01:48:40;;;;;;;17.10;4.63;;;;;;;;;;4939398;28;20268;-76
2023/03/01 01:51:07;;;;;;;19.98;5.63;;;;;;;;;;4937351;28;20489;-76
2023/03/01 01:53:33;;;;;;;19.92;5.97;;;;;;;;;;4936913;28;20030;-76
2023/03/01 01:56:01;;;;;;;18.25;5.63;;;;;;;;;;4940749;28;20126;-76
2023/03/01 01:58:30;;;;;;;16.25;4.93;;;;;;;;;;4940712;28;20074;-76
2023/03/01 02:00:56;;;;;;;18.73;5.65;;;;;;;;;;4933462;28;20621;-76
2023/03/01 02:03:22;;;;;;;;;;;;;;;;;;4941018;28;20023;-76
2023/03/01 02:05:56;;;;;;;21.75;6.25;;;;;;;;;;4933128;28;19914;-76
2023/03/01 02:08:24;;;;;;;22.08;5.18;;;;;;;;;;4933630;28;20035;-76
2023/03/01 02:10:51;;;;;;;20.33;4.88;;;;;;;;;;4939986;28;20045;-76
2023/03/01 02:13:17;;;;;;;18.77;4.80;;;;;;;;;;4930203;28;20468;-76
2023/03/01 02:15:46;;;;;;;18.73;4.95;;;;;;;;;;4939705;28;20371;-76
2023/03/01 02:18:15;;;;;;;21.77;5.10;;;;;;;;;;4941625;28;20034;-77
2023/03/01 02:20:41;;;;;;;19.40;5.28;;;;;;;;;;4940683;28;20042;-76
2023/03/01 02:23:08;;;;;;;18.60;5.00;;;;;;;;;;4935993;28;20027;-76
2023/03/01 02:25:43;;;;;;;15.90;5.05;;;;;;;;;;4943605;28;20819;-76
2023/03/01 02:28:13;;;;;;;19.13;5.10;;;;;;;;;;4932439;28;20057;-76
2023/03/01 02:31:41;;;;;;;19.27;4.82;;;;;;;;;;4939872;28;20134;-75
2023/03/01 02:33:26;;;;;;;17.65;4.80;;;;;;;;;;4938832;28;20032;-75
2023/03/01 02:35:53;;;;;;;17.33;4.82;;;;;;;;;;4938591;28;20840;-76
2023/03/01 02:38:19;;;;;;;20.75;5.60;;;;;;;;;;4934913;28;20681;-75
2023/03/01 02:40:46;;;;;;;18.00;5.82;;;;;;;;;;4936068;28;20201;-75
2023/03/01 02:43:13;;;;;;;20.35;5.78;;;;;;;;;;4927852;28;20409;-76
2023/03/01 02:45:43;;;;;;;20.08;5.10;;;;;;;;;;4926992;28;20793;-76
2023/03/01 02:48:11;;;;;;;21.50;5.15;;;;;;;;;;4934833;28;20039;-76
2023/03/01 02:50:53;;;;;;;19.88;5.78;;;;;;;;;;4934677;28;20438;-76
2023/03/01 02:53:26;;;;;;;21.73;5.82;;;;;;;;;;4932723;28;20464;-75
2023/03/01 02:55:52;;;;;;;23.23;6.38;;;;;;;;;;4932620;28;20459;-76
2023/03/01 02:58:18;;;;;;;22.77;5.82;;;;;;;;;;4931231;28;20038;-76
2023/03/01 03:00:46;;;;;;;21.95;6.70;;;;;;;;;;4932007;28;20030;-76
2023/03/01 03:03:19;;;;;;;22.50;7.47;;;;;;;;;;4929195;28;20436;-76
2023/03/01 03:05:45;;;;;;;34.58;14.20;;;;;;;;;;4935546;28;20038;-76
2023/03/01 03:08:12;;;;;;;29.00;11.82;;;;;;;;;;4933384;28;20146;-75
2023/03/01 03:10:39;;;;;;;27.52;10.27;;;;;;;;;;4933231;28;20082;-76
2023/03/01 03:13:07;;;;;;;29.95;10.45;;;;;;;;;;4930078;28;20110;-76
2023/03/01 03:15:35;;;;;;;34.42;11.63;;;;;;;;;;4930640;28;20797;-75
2023/03/01 03:18:02;;;;;;;26.35;9.02;;;;;;;;;;4931212;28;20496;-76
2023/03/01 03:20:28;;;;;;;24.15;7.95;;;;;;;;;;4935957;28;20039;-76
2023/03/01 03:22:55;;;;;;;24.88;7.15;;;;;;;;;;4929120;28;20452;-76
2023/03/01 03:25:22;;;;;;;20.30;5.95;;;;;;;;;;4925211;28;20031;-75
2023/03/01 03:27:49;;;;;;;23.92;6.85;;;;;;;;;;4931100;28;20617;-75
2023/03/01 03:30:17;;;;;;;23.27;5.93;;;;;;;;;;4925512;28;20042;-76
2023/03/01 03:32:53;;;;;;;24.38;6.53;;;;;;;;;;4929111;28;20031;-76
2023/03/01 03:35:30;;;;;;;26.73;6.70;;;;;;;;;;4930552;28;20102;-76
2023/03/01 03:38:02;;;;;;;;;;;;;;;;;;4928144;28;20041;-75
2023/03/01 03:40:30;;;;;;;28.73;7.65;;;;;;;;;;4926353;28;19918;-76
2023/03/01 03:42:57;;;;;;;24.08;7.88;;;;;;;;;;4932897;28;20018;-75
2023/03/01 03:45:23;;;;;;;;;;;;;;;;;;4929598;28;20496;-76
2023/03/01 03:47:49;;;;;;;28.80;8.85;;;;;;;;;;4930812;28;19913;-76
2023/03/01 03:50:16;;;;;;;25.02;9.02;;;;;;;;;;4930513;28;20445;-76
2023/03/01 03:52:43;;;;;;;27.42;9.00;;;;;;;;;;4932361;28;20035;-75
2023/03/01 03:55:10;;;;;;;22.83;8.93;;;;;;;;;;4932822;28;20031;-75
2023/03/01 03:57:36;;;;;;;31.08;9.35;;;;;;;;;;4931344;28;20555;-76
2023/03/01 04:00:12;;;;;;;20.65;7.93;;;;;;;;;;4928607;28;20039;-76
2023/03/01 04:02:39;;;;;;;23.63;8.20;;;;;;;;;;4939122;28;20146;-75
2023/03/01 04:05:05;;;;;;;21.05;7.43;;;;;;;;;;4923548;28;20057;-76
2023/03/01 04:07:32;;;;;;;18.52;6.95;;;;;;;;;;4927134;28;20136;-75
2023/03/01 04:09:58;;;;;;;23.15;7.15;;;;;;;;;;4929026;28;20163;-75
2023/03/01 04:12:24;;;;;;;23.52;6.57;;;;;;;;;;4926120;28;20027;-76
2023/03/01 04:14:50;;;;;;;20.90;6.75;;;;;;;;;;4930141;28;20110;-75
2023/03/01 04:17:16;;;;;;;21.13;6.25;;;;;;;;;;4925556;28;20062;-76
2023/03/01 04:19:43;;;;;;;18.08;5.45;;;;;;;;;;4926771;28;20039;-75
2023/03/01 04:22:11;;;;;;;19.58;5.45;;;;;;;;;;4929063;28;20039;-75
2023/03/01 04:24:37;;;;;;;20.50;5.22;;;;;;;;;;4933158;28;20127;-75
2023/03/01 04:27:03;;;;;;;;;;;;;;;;;;4933801;28;20292;-75
2023/03/01 04:29:30;;;;;;;18.38;5.47;;;;;;;;;;4934101;28;19914;-76
2023/03/01 04:31:56;;;;;;;25.77;5.95;;;;;;;;;;4933013;28;20035;-75
2023/03/01 04:34:22;;;;;;;16.00;5.03;;;;;;;;;;4930709;28;20481;-75
2023/03/01 04:36:48;;;;;;;18.80;5.00;;;;;;;;;;4932842;28;20158;-76
2023/03/01 04:39:18;;;;;;;15.93;4.75;;;;;;;;;;4930084;28;20512;-76
2023/03/01 04:41:44;;;;;;;19.10;5.65;;;;;;;;;;4931615;28;20158;-76
2023/03/01 04:44:10;;;;;;;15.23;4.55;;;;;;;;;;4926206;28;20043;-76
2023/03/01 04:46:37;;;;;;;16.33;4.35;;;;;;;;;;4938152;28;20082;-78
2023/03/01 04:49:03;;;;;;;17.38;4.38;;;;;;;;;;4930906;28;20050;-76
2023/03/01 04:51:29;;;;;;;;;;;;;;;;;;4933909;28;20042;-76
2023/03/01 04:53:55;;;;;;;17.27;5.50;;;;;;;;;;4930677;28;20378;-76
2023/03/01 04:56:22;;;;;;;16.45;5.70;;;;;;;;;;4926893;28;20043;-76
2023/03/01 04:58:49;;;;;;;17.75;5.53;;;;;;;;;;4934864;28;20677;-75
2023/03/01 05:01:17;;;;;;;19.38;5.80;;;;;;;;;;4932540;28;20447;-74
2023/03/01 05:03:44;;;;;;;19.40;5.20;;;;;;;;;;4931246;28;20451;-74
2023/03/01 05:06:10;;;;;;;22.10;5.00;;;;;;;;;;4930993;28;20437;-75
2023/03/01 05:08:37;;;;;;;18.10;5.75;;;;;;;;;;4940637;28;20514;-74
2023/03/01 05:11:03;;;;;;;21.42;5.60;;;;;;;;;;4936229;28;20059;-74
2023/03/01 05:13:29;;;;;;;17.27;5.68;;;;;;;;;;4939176;28;20089;-76
2023/03/01 05:15:57;;;;;;;20.88;5.60;;;;;;;;;;4939828;28;20757;-76
2023/03/01 05:18:25;;;;;;;20.38;5.35;;;;;;;;;;4940405;28;20035;-76
2023/03/01 05:20:52;;;;;;;17.10;5.18;;;;;;;;;;4937330;28;20038;-76
2023/03/01 05:23:18;;;;;;;19.90;4.97;;;;;;;;;;4932353;28;20031;-75
2023/03/01 05:25:44;;;;;;;17.55;5.15;;;;;;;;;;4937917;28;20024;-75
2023/03/01 05:28:13;;;;;;;14.20;4.53;;;;;;;;;;4934991;28;20034;-76
2023/03/01 05:30:40;;;;;;;18.55;4.85;;;;;;;;;;4939495;28;20364;-76
2023/03/01 05:33:10;;;;;;;21.05;6.00;;;;;;;;;;4932973;28;20496;-76
2023/03/01 05:35:36;;;;;;;20.05;5.40;;;;;;;;;;4935198;28;20031;-75
2023/03/01 05:38:02;;;;;;;19.95;6.03;;;;;;;;;;4934145;28;20414;-75
2023/03/01 05:40:29;;;;;;;12.98;5.18;;;;;;;;;;4939223;28;20399;-75
2023/03/01 05:42:57;;;;;;;17.63;6.00;;;;;;;;;;4941430;28;20047;-74
2023/03/01 05:45:26;;;;;;;17.08;6.43;;;;;;;;;;4940366;28;20051;-75
2023/03/01 05:47:54;;;;;;;17.55;6.05;;;;;;;;;;4933891;28;20035;-77
2023/03/01 05:50:25;;;;;;;18.90;6.30;;;;;;;;;;4929731;28;20046;-74
2023/03/01 05:52:52;;;;;;;23.80;7.30;;;;;;;;;;4939899;28;20062;-75
2023/03/01 05:55:21;;;;;;;23.27;6.30;;;;;;;;;;4934357;28;20039;-74
2023/03/01 05:57:47;;;;;;;15.95;6.28;;;;;;;;;;4936705;28;20138;-75
2023/03/01 06:00:15;;;;;;;19.30;6.00;;;;;;;;;;4923244;28;20036;-74
2023/03/01 06:02:41;;;;;;;17.65;5.47;;;;;;;;;;4924624;28;20028;-75
2023/03/01 06:05:08;;;;;;;18.10;4.38;;;;;;;;;;4938105;28;20034;-75
2023/03/01 06:07:35;;;;;;;17.88;5.40;;;;;;;;;;4944768;28;20464;-75
2023/03/01 06:10:01;;;;;;;19.25;6.20;;;;;;;;;;4940660;28;20420;-76
2023/03/01 06:12:27;;;;;;;;;;;;;;;;;;4942221;28;20329;-75
2023/03/01 06:14:53;;;;;;;16.17;5.38;;;;;;;;;;4945951;28;19988;-75
2023/03/01 06:17:20;;;;;;;19.02;5.20;;;;;;;;;;4947985;28;20832;-74
2023/03/01 06:19:47;;;;;;;16.55;5.63;;;;;;;;;;4942128;28;20042;-75
2023/03/01 06:22:13;;;;;;;17.85;4.97;;;;;;;;;;4941384;28;20136;-75
2023/03/01 06:24:39;;;;;;;14.20;4.97;;;;;;;;;;4941663;28;20393;-75
2023/03/01 06:27:05;;;;;;;16.63;5.63;;;;;;;;;;4937262;28;20037;-74
2023/03/01 06:29:31;;;;;;;16.75;5.63;;;;;;;;;;4942155;28;20092;-74
2023/03/01 06:31:58;;;;;;;14.55;5.78;;;;;;;;;;4945966;28;20381;-74
2023/03/01 06:34:24;;;;;;;18.45;5.88;;;;;;;;;;4935713;28;20130;-75
2023/03/01 06:36:50;;;;;;;13.68;4.90;;;;;;;;;;4916469;28;20583;-75
2023/03/01 06:39:17;;;;;;;17.90;4.78;;;;;;;;;;4911278;28;20381;-74
2023/03/01 06:41:44;;;;;;;15.80;5.22;;;;;;;;;;4913116;28;20031;-75
2023/03/01 06:44:10;;;;;;;;;;;;;;;;;;4912994;28;20058;-75
2023/03/01 06:46:36;;;;;;;18.23;5.72;;;;;;;;;;4915024;28;19953;-74
2023/03/01 06:49:07;;;;;;;12.60;5.15;;;;;;;;;;4909727;28;20058;-75
2023/03/01 06:51:33;;;;;;;15.07;5.00;;;;;;;;;;4909871;28;20630;-75
2023/03/01 06:54:00;;;;;;;12.68;4.72;;;;;;;;;;4909526;28;20073;-75
2023/03/01 06:56:27;;;;;;;16.58;4.68;;;;;;;;;;4910828;28;20055;-76
2023/03/01 06:58:53;;;;;;;17.10;4.80;;;;;;;;;;4910407;28;20030;-74
2023/03/01 07:01:19;;;;;;;16.63;4.93;;;;;;;;;;4912036;28;20027;-74
2023/03/01 07:03:46;;;;;;;;;;;;;;;;;;4915865;28;20070;-76
2023/03/01 07:06:12;;;;;;;16.40;5.20;;;;;;;;;;4912892;28;19918;-75
2023/03/01 07:08:38;;;;;;;16.85;5.55;;;;;;;;;;4914667;28;20078;-75
2023/03/01 07:11:05;;;;;;;16.67;4.38;;;;;;;;;;4915613;28;20039;-74
2023/03/01 07:13:32;;;;;;;13.20;5.07;;;;;;;;;;4931873;28;20023;-75
2023/03/01 07:15:58;;;;;;;15.55;5.38;;;;;;;;;;4940174;28;20038;-74
2023/03/01 07:18:24;;;;;;;13.10;5.85;;;;;;;;;;4942465;28;20094;-76
2023/03/01 07:20:50;;;;;;;11.43;5.03;;;;;;;;;;4941905;28;20137;-75
2023/03/01 07:23:17;;;;;;;14.88;6.07;;;;;;;;;;4938160;28;20034;-76
2023/03/01 07:25:43;;;;;;;14.57;5.80;;;;;;;;;;4940517;28;20031;-75
2023/03/01 07:28:09;;;;;;;13.20;5.45;;;;;;;;;;4940761;28;20035;-75
2023/03/01 07:30:36;;;;;;;15.73;7.03;;;;;;;;;;4944452;28;20023;-75
2023/03/01 07:33:02;;;;;;;15.38;6.72;;;;;;;;;;4938072;28;20671;-75
2023/03/01 07:35:28;;;;;;;14.60;6.05;;;;;;;;;;4937704;28;20035;-75
2023/03/01 07:37:54;;;;;;;13.43;6.32;;;;;;;;;;4941171;28;20366;-76
2023/03/01 07:40:21;;;;;;;13.82;5.57;;;;;;;;;;4941978;28;20050;-75
2023/03/01 07:42:47;;;;;;;13.00;5.25;;;;;;;;;;4942477;28;20551;-75
2023/03/01 07:45:13;;;;;;;14.57;5.20;;;;;;;;;;4943766;28;20649;-74
2023/03/01 07:47:40;;;;;;;13.75;4.60;;;;;;;;;;4940397;28;20034;-77
2023/03/01 07:50:06;;;;;;;13.63;4.10;;;;;;;;;;4937687;28;20118;-75
2023/03/01 07:52:32;;;;;;;17.65;4.90;;;;;;;;;;4940161;28;20449;-75
2023/03/01 07:54:58;;;;;;;11.15;3.88;;;;;;;;;;4936919;28;20441;-77
2023/03/01 07:57:25;;;;;;;14.50;4.00;;;;;;;;;;4940522;28;20031;-76
2023/03/01 07:59:51;;;;;;;10.70;3.45;;;;;;;;;;4941758;28;20544;-75
2023/03/01 08:02:17;;;;;;;11.13;3.78;;;;;;;;;;4939953;28;20109;-76
2023/03/01 08:04:43;;;;;;;16.85;3.90;;;;;;;;;;4939335;28;20489;-75
2023/03/01 08:07:09;;;;;;;15.07;4.35;;;;;;;;;;4940521;28;20344;-75
2023/03/01 08:09:37;;;;;;;11.23;3.72;;;;;;;;;;4945061;28;20440;-75
2023/03/01 08:12:04;;;;;;;16.25;4.97;;;;;;;;;;4940457;28;20022;-75
2023/03/01 08:14:30;;;;;;;13.65;5.40;;;;;;;;;;4941282;28;20551;-76
2023/03/01 08:16:56;;;;;;;16.67;4.50;;;;;;;;;;4943137;28;20350;-75
2023/03/01 08:19:23;;;;;;;11.23;4.30;;;;;;;;;;4940658;28;20476;-77
2023/03/01 08:21:49;;;;;;;14.15;3.42;;;;;;;;;;4941951;28;20400;-76
2023/03/01 08:24:15;;;;;;;11.27;3.70;;;;;;;;;;4943810;28;20038;-76
2023/03/01 08:26:42;;;;;;;13.90;3.30;;;;;;;;;;4944970;28;20122;-75
2023/03/01 08:29:10;;;;;;;13.88;3.22;;;;;;;;;;4945860;28;20039;-75
2023/03/01 08:31:37;;;;;;;8.45;2.78;;;;;;;;;;4947748;28;20139;-75
2023/03/01 08:34:07;;;;;;;12.07;3.05;;;;;;;;;;4951299;28;20385;-76
2023/03/01 08:36:35;;;;;;;10.60;2.90;;;;;;;;;;4951536;28;20183;-76
2023/03/01 08:39:01;;;;;;;11.10;2.80;;;;;;;;;;4950831;28;20149;-76
2023/03/01 08:41:28;;;;;;;9.77;2.53;;;;;;;;;;4944164;28;20749;-77
2023/03/01 08:43:58;;;;;;;14.18;2.75;;;;;;;;;;4950808;28;20055;-75
2023/03/01 08:46:28;;;;;;;9.48;2.28;;;;;;;;;;4958882;28;20102;-75
2023/03/01 08:48:54;;;;;;;7.07;2.58;;;;;;;;;;4951613;28;20039;-75
2023/03/01 08:51:21;;;;;;;7.43;2.55;;;;;;;;;;4950220;28;20437;-75
2023/03/01 08:53:48;;;;;;;8.98;2.88;;;;;;;;;;4940859;28;20073;-76
2023/03/01 08:56:14;;;;;;;;;;;;;;;;;;4954439;28;20035;-75
2023/03/01 08:58:40;;;;;;;8.48;3.00;;;;;;;;;;4958062;28;19918;-76
2023/03/01 09:01:10;;;;;;;9.15;2.97;;;;;;;;;;4948646;28;20042;-76
2023/03/01 09:03:36;;;;;;;8.93;2.30;;;;;;;;;;4960567;28;20072;-75
2023/03/01 09:06:02;;;;;;;;;;;;;;;;;;4951925;28;20453;-75
2023/03/01 09:08:29;;;;;;;7.65;2.22;;;;;;;;;;4943759;28;19923;-75
2023/03/01 09:10:55;;;;;;;;;;;;;;;;;;4950214;28;20296;-78
2023/03/01 09:13:24;;;;;;;7.15;1.85;;;;;;;;;;4937683;28;20344;-75
2023/03/01 09:15:51;;;;;;;7.90;2.35;;;;;;;;;;4943325;28;20035;-75
2023/03/01 09:18:17;;;;;;;10.88;2.25;;;;;;;;;;4943064;28;20389;-77
2023/03/01 09:20:43;;;;;;;10.02;2.17;;;;;;;;;;4943819;28;20385;-76
2023/03/01 09:23:09;;;;;;;8.73;2.80;;;;;;;;;;4941879;28;20033;-77
2023/03/01 09:25:35;;;;;;;7.30;2.78;;;;;;;;;;4948612;28;20049;-76
2023/03/01 09:28:01;;;;;;;;;;;;;;;;;;4948446;28;20026;-76
2023/03/01 09:30:28;;;;;;;8.63;2.05;;;;;;;;;;4948212;28;19954;-77
2023/03/01 09:32:54;;;;;;;12.25;2.75;;;;;;;;;;4951602;28;20098;-78
2023/03/01 09:35:22;;;;;;;;;;;;;;;;;;4948146;28;20034;-77
2023/03/01 09:37:49;;;;;;;8.40;2.17;;;;;;;;;;4944778;28;19981;-76
2023/03/01 09:40:20;;;;;;;10.38;2.50;;;;;;;;;;4944584;28;20035;-77
2023/03/01 09:42:53;;;;;;;9.50;2.80;;;;;;;;;;4941947;28;20035;-75
2023/03/01 09:45:24;;;;;;;10.60;2.55;;;;;;;;;;4942241;28;20058;-76
2023/03/01 09:47:50;;;;;;;8.23;2.40;;;;;;;;;;4944470;28;20038;-77
2023/03/01 09:50:17;;;;;;;;;;;;;;;;;;4939937;28;20110;-75
2023/03/01 09:52:55;;;;;;;10.30;2.38;;;;;;;;;;4939773;28;19921;-76
2023/03/01 09:55:26;;;;;;;9.15;2.15;;;;;;;;;;4941609;28;20540;-76
2023/03/01 09:58:03;;;;;;;9.40;2.38;;;;;;;;;;4952478;28;20061;-77
2023/03/01 10:00:47;;;;;;;9.98;2.78;;;;;;;;;;4959294;28;20046;-76
2023/03/01 10:03:32;;;;;;;11.43;2.50;;;;;;;;;;4948497;28;20314;-78
2023/03/01 10:05:59;;;;;;;11.25;2.30;;;;;;;;;;4945119;28;20574;-78
2023/03/01 10:08:33;;;;;;;11.00;2.50;;;;;;;;;;4955270;28;20037;-75
2023/03/01 10:10:59;;;;;;;11.75;2.53;;;;;;;;;;4948551;28;20026;-76
2023/03/01 10:13:33;;;;;;;10.90;2.30;;;;;;;;;;4952216;28;20500;-79
2023/03/01 10:16:04;;;;;;;8.50;2.20;;;;;;;;;;4953289;28;20915;-76
2023/03/01 10:18:32;;;;;;;8.80;2.13;;;;;;;;;;4939650;28;20118;-78
2023/03/01 10:21:15;;;;;;;6.43;2.00;;;;;;;;;;4930806;28;20039;-77
2023/03/01 10:23:41;;;;;;;5.53;1.65;;;;;;;;;;4936787;28;20050;-76
2023/03/01 10:26:15;;;;;;;5.82;1.80;;;;;;;;;;4940412;28;20031;-78
2023/03/01 10:28:44;;;;;;;7.63;1.95;;;;;;;;;;4938777;28;20034;-77
2023/03/01 10:31:19;;;;;;;10.90;2.25;;;;;;;;;;4925575;28;20094;-78
2023/03/01 10:33:47;;;;;;;8.80;2.15;;;;;;;;;;4950855;28;20165;-76
2023/03/01 10:36:13;;;;;;;6.85;2.17;;;;;;;;;;4942118;28;20084;-77
2023/03/01 10:38:39;;;;;;;;;;;;;;;;;;4933415;28;20047;-77
2023/03/01 10:41:07;;;;;;;9.52;2.20;;;;;;;;;;4929890;28;19976;-77
2023/03/01 10:43:53;;;;;;;7.00;2.45;;;;;;;;;;4928314;28;20470;-78
2023/03/01 10:46:33;;;;;;;9.27;2.35;;;;;;;;;;4939607;28;20035;-77
2023/03/01 10:49:18;;;;;;;8.05;2.10;;;;;;;;;;4936171;28;20117;-78
2023/03/01 10:51:46;;;;;;;6.50;2.00;;;;;;;;;;4941800;28;20062;-77
2023/03/01 10:54:18;;;;;;;5.85;1.88;;;;;;;;;;4944806;28;20034;-78
2023/03/01 10:56:53;;;;;;;6.97;1.77;;;;;;;;;;4943066;28;20035;-78
2023/03/01 10:59:33;;;;;;;7.65;2.05;;;;;;;;;;4939021;28;20031;-78
2023/03/01 11:02:38;;;;;;;7.90;2.15;;;;;;;;;;4936499;28;20122;-77
2023/03/01 11:05:04;;;;;;;6.00;1.80;;;;;;;;;;4900942;29;20115;-77
2023/03/01 11:07:30;;;;;;;8.23;2.00;;;;;;;;;;4887371;29;20031;-77
2023/03/01 11:09:56;;;;;;;8.52;3.20;;;;;;;;;;4891532;29;20047;-80
2023/03/01 11:12:22;;;;;;;12.90;5.60;;;;;;;;;;4888561;29;20419;-78
2023/03/01 11:14:53;;;;;;;13.02;5.15;;;;;;;;;;4891069;29;20031;-78
2023/03/01 11:17:25;;;;;;;7.82;2.85;;;;;;;;;;4897178;29;20051;-77
2023/03/01 11:20:20;;;;;;;7.57;2.50;;;;;;;;;;4904208;29;20042;-77
2023/03/01 11:22:52;;;;;;;8.05;2.33;;;;;;;;;;4900284;29;20071;-77
2023/03/01 11:25:20;;;;;;;8.82;3.25;;;;;;;;;;4900136;29;20036;-78
2023/03/01 11:27:47;;;;;;;8.65;2.72;;;;;;;;;;4904517;29;20170;-78
2023/03/01 11:30:18;;;;;;;8.00;2.40;;;;;;;;;;4886795;29;20334;-79
2023/03/01 11:32:55;;;;;;;5.93;2.03;;;;;;;;;;4901135;29;20027;-77
2023/03/01 11:35:24;;;;;;;7.05;2.20;;;;;;;;;;4908681;28;20342;-77
2023/03/01 11:38:02;;;;;;;6.93;1.90;;;;;;;;;;4944989;28;20064;-78
2023/03/01 11:40:31;;;;;;;8.70;2.58;;;;;;;;;;4942524;28;20037;-78
2023/03/01 11:43:00;;;;;;;6.35;2.25;;;;;;;;;;4941521;28;20035;-78
2023/03/01 11:45:29;;;;;;;9.02;2.17;;;;;;;;;;4934079;28;20519;-78
2023/03/01 11:48:13;;;;;;;9.23;2.03;;;;;;;;;;4941112;28;20500;-78
2023/03/01 11:50:49;;;;;;;7.53;2.22;;;;;;;;;;4939967;28;20674;-77
2023/03/01 11:53:34;;;;;;;12.57;4.00;;;;;;;;;;4941850;28;20034;-80
2023/03/01 11:56:06;;;;;;;9.68;3.10;;;;;;;;;;4941872;28;20633;-77
2023/03/01 11:58:55;;;;;;;6.97;2.40;;;;;;;;;;4945389;28;20031;-78
2023/03/01 12:01:29;;;;;;;10.30;4.10;;;;;;;;;;4946355;28;20218;-79
2023/03/01 12:03:55;;;;;;;11.38;5.53;;;;;;;;;;4946345;28;20038;-77
2023/03/01 12:06:48;;;;;;;8.15;2.50;;;;;;;;;;4942103;28;20679;-78
2023/03/01 12:09:20;;;;;;;7.15;2.47;;;;;;;;;;4948925;28;20360;-78
2023/03/01 12:12:05;;;;;;;7.85;2.30;;;;;;;;;;4941514;28;20026;-78
2023/03/01 12:14:50;;;;;;;6.72;2.13;;;;;;;;;;4941792;28;20927;-79
2023/03/01 12:17:32;;;;;;;6.82;2.15;;;;;;;;;;4942400;28;20027;-79
2023/03/01 12:19:58;;;;;;;8.73;2.78;;;;;;;;;;4947177;28;20031;-79
2023/03/01 12:22:40;;;;;;;8.18;2.15;;;;;;;;;;4947018;28;20030;-80
2023/03/01 12:25:26;;;;;;;7.43;2.10;;;;;;;;;;4946445;28;20064;-79
2023/03/01 12:28:11;;;;;;;10.13;2.53;;;;;;;;;;4948003;28;20027;-79
2023/03/01 12:30:56;;;;;;;5.97;2.10;;;;;;;;;;4948523;28;20097;-78
2023/03/01 12:33:34;;;;;;;7.72;2.35;;;;;;;;;;4944834;28;20026;-78
2023/03/01 12:36:19;;;;;;;7.53;3.05;;;;;;;;;;4941405;28;20168;-78
2023/03/01 12:38:48;;;;;;;8.30;2.33;;;;;;;;;;4951803;28;20030;-77
2023/03/01 12:41:33;;;;;;;8.57;3.00;;;;;;;;;;4945011;28;20592;-78
2023/03/01 12:43:59;;;;;;;6.88;2.00;;;;;;;;;;4947791;28;20078;-78
2023/03/01 12:46:43;;;;;;;7.57;2.22;;;;;;;;;;4947296;28;20038;-78
2023/03/01 12:49:28;;;;;;;6.85;2.13;;;;;;;;;;4947144;28;20042;-78
2023/03/01 12:52:02;;;;;;;7.93;2.20;;;;;;;;;;4946744;28;20133;-79
2023/03/01 12:54:33;;;;;;;7.50;2.63;;;;;;;;;;4952619;28;20520;-78
2023/03/01 12:57:12;;;;;;;6.70;2.30;;;;;;;;;;4950637;28;20469;-78
2023/03/01 13:00:00;;;;;;;7.20;2.13;;;;;;;;;;4948823;28;20543;-79
2023/03/01 13:02:35;;;;;;;9.48;2.50;;;;;;;;;;4951934;28;20484;-79
2023/03/01 13:05:03;;;;;;;8.95;2.72;;;;;;;;;;4942677;28;20147;-79
2023/03/01 13:07:30;;;;;;;9.75;2.00;;;;;;;;;;4947080;28;20460;-79
2023/03/01 13:10:07;;;;;;;6.22;2.22;;;;;;;;;;4950657;28;20030;-79
2023/03/01 13:12:52;;;;;;;7.38;2.78;;;;;;;;;;4943486;28;20289;-79
2023/03/01 13:15:24;;;;;;;5.57;2.03;;;;;;;;;;4947584;28;20941;-78
2023/03/01 13:17:57;;;;;;;7.47;2.33;;;;;;;;;;4951626;28;20026;-79
2023/03/01 13:20:26;;;;;;;9.55;2.53;;;;;;;;;;4946871;28;20422;-78
2023/03/01 13:23:04;;;;;;;8.60;2.67;;;;;;;;;;4949523;28;20487;-79
2023/03/01 13:25:31;;;;;;;7.05;2.03;;;;;;;;;;4945370;28;20035;-78
2023/03/01 13:28:36;;;;;;;7.85;2.50;;;;;;;;;;4944662;28;20114;-79
2023/03/01 13:31:06;;;;;;;7.80;2.42;;;;;;;;;;4886695;29;20565;-79
2023/03/01 13:33:36;;;;;;;5.22;1.90;;;;;;;;;;4894407;29;20082;-78
2023/03/01 13:36:02;;;;;;;7.88;2.25;;;;;;;;;;4900635;29;20040;-79
2023/03/01 13:38:48;;;;;;;7.35;2.30;;;;;;;;;;4908724;29;20870;-78
2023/03/01 13:41:18;;;;;;;6.17;2.23;;;;;;;;;;4908293;29;20028;-78
2023/03/01 13:43:47;;;;;;;6.63;2.45;;;;;;;;;;4907367;29;20304;-77
2023/03/01 13:46:18;;;;;;;7.25;2.15;;;;;;;;;;4906013;29;20182;-81
2023/03/01 13:48:46;;;;;;;7.13;2.38;;;;;;;;;;4900655;29;20193;-81
2023/03/01 13:51:13;;;;;;;9.27;3.00;;;;;;;;;;4906726;29;20582;-80
2023/03/01 13:53:47;;;;;;;7.00;1.85;;;;;;;;;;4905070;29;20051;-79
2023/03/01 13:56:17;;;;;;;10.02;2.72;;;;;;;;;;4903953;29;20513;-79
2023/03/01 13:58:52;;;;;;;6.60;2.40;;;;;;;;;;4905648;29;20142;-75
2023/03/01 14:01:21;;;;;;;7.63;2.65;;;;;;;;;;4904366;28;22405;-74
2023/03/01 14:03:47;;;;;;;6.90;2.20;;;;;;;;;;4946219;28;20099;-74
2023/03/01 14:06:20;;;;;;;7.53;2.35;;;;;;;;;;4947772;28;20348;-73
2023/03/01 14:08:47;;;;;;;7.72;2.60;;;;;;;;;;4947845;28;20098;-75
2023/03/01 14:11:36;;;;;;;9.60;3.45;;;;;;;;;;4944322;28;20045;-73
2023/03/01 14:14:05;;;;;;;8.23;2.55;;;;;;;;;;4944039;28;20511;-74
2023/03/01 14:16:40;;;;;;;6.20;1.88;;;;;;;;;;4951389;28;20059;-70
2023/03/01 14:19:06;;;;;;;6.82;2.60;;;;;;;;;;4940798;28;20035;-70
2023/03/01 14:21:32;;;;;;;8.57;2.97;;;;;;;;;;4943105;28;20038;-71
2023/03/01 14:23:59;;;;;;;7.30;2.42;;;;;;;;;;4949262;28;20137;-71
2023/03/01 14:26:25;;;;;;;7.63;2.35;;;;;;;;;;4951558;28;20178;-71
2023/03/01 14:28:51;;;;;;;10.23;3.22;;;;;;;;;;4953039;28;20630;-71
2023/03/01 14:31:35;;;;;;;8.50;2.92;;;;;;;;;;4946979;28;20122;-71
2023/03/01 14:34:01;;;;;;;8.32;2.97;;;;;;;;;;4950223;28;20446;-71
2023/03/01 14:36:29;;;;;;;10.27;3.40;;;;;;;;;;4952777;28;20596;-71
2023/03/01 14:38:58;;;;;;;8.93;3.15;;;;;;;;;;4942945;28;20557;-71
2023/03/01 14:41:26;;;;;;;9.63;3.20;;;;;;;;;;4948569;28;20031;-71
2023/03/01 14:43:52;;;;;;;8.15;2.80;;;;;;;;;;4948431;28;20047;-71
2023/03/01 14:46:24;;;;;;;8.98;2.78;;;;;;;;;;4944506;28;20723;-71
2023/03/01 14:48:58;;;;;;;12.02;2.88;;;;;;;;;;4944555;28;20031;-72
2023/03/01 14:51:25;;;;;;;9.68;3.67;;;;;;;;;;4946857;28;20610;-71
2023/03/01 14:53:51;;;;;;;9.27;3.85;;;;;;;;;;4946694;28;20027;-71